sensor_id;sensor_type;location;lat;lon;timestamp;temperature;humidity
53962;DHT22;39868;53.398;6.564;2024-01-27T00:02:25;7.70;86.10
53962;DHT22;39868;53.398;6.564;2024-01-27T00:04:53;7.70;86.10
53962;DHT22;39868;53.398;6.564;2024-01-27T00:07:20;7.70;86.00
53962;DHT22;39868;53.398;6.564;2024-01-27T00:09:48;7.70;85.90
53962;DHT22;39868;53.398;6.564;2024-01-27T00:12:15;7.70;85.80
53962;DHT22;39868;53.398;6.564;2024-01-27T00:14:42;7.70;85.80
53962;DHT22;39868;53.398;6.564;2024-01-27T00:17:10;7.60;85.70
53962;DHT22;39868;53.398;6.564;2024-01-27T00:19:38;7.60;85.70
53962;DHT22;39868;53.398;6.564;2024-01-27T00:22:08;7.60;85.70
53962;DHT22;39868;53.398;6.564;2024-01-27T00:24:35;7.60;85.80
53962;DHT22;39868;53.398;6.564;2024-01-27T00:27:02;7.60;85.80
53962;DHT22;39868;53.398;6.564;2024-01-27T00:29:31;7.60;85.90
53962;DHT22;39868;53.398;6.564;2024-01-27T00:31:58;7.60;85.90
53962;DHT22;39868;53.398;6.564;2024-01-27T00:34:25;7.60;86.40
53962;DHT22;39868;53.398;6.564;2024-01-27T00:36:53;7.60;85.80
53962;DHT22;39868;53.398;6.564;2024-01-27T00:39:20;7.60;85.80
53962;DHT22;39868;53.398;6.564;2024-01-27T00:41:47;7.60;85.80
53962;DHT22;39868;53.398;6.564;2024-01-27T00:44:15;7.60;85.70
53962;DHT22;39868;53.398;6.564;2024-01-27T00:46:42;7.50;85.70
53962;DHT22;39868;53.398;6.564;2024-01-27T00:49:09;7.50;85.70
53962;DHT22;39868;53.398;6.564;2024-01-27T00:51:37;7.50;85.70
53962;DHT22;39868;53.398;6.564;2024-01-27T00:54:04;7.50;85.80
53962;DHT22;39868;53.398;6.564;2024-01-27T00:56:32;7.50;85.80
53962;DHT22;39868;53.398;6.564;2024-01-27T00:58:59;7.50;85.80
53962;DHT22;39868;53.398;6.564;2024-01-27T01:01:26;7.50;85.80
53962;DHT22;39868;53.398;6.564;2024-01-27T01:03:54;7.50;85.80
53962;DHT22;39868;53.398;6.564;2024-01-27T01:06:21;7.50;85.80
53962;DHT22;39868;53.398;6.564;2024-01-27T01:08:49;7.50;85.70
53962;DHT22;39868;53.398;6.564;2024-01-27T01:11:16;7.40;85.60
53962;DHT22;39868;53.398;6.564;2024-01-27T01:13:43;7.40;85.60
53962;DHT22;39868;53.398;6.564;2024-01-27T01:16:11;7.40;85.60
53962;DHT22;39868;53.398;6.564;2024-01-27T01:18:38;7.40;85.60
53962;DHT22;39868;53.398;6.564;2024-01-27T01:21:06;7.40;85.60
53962;DHT22;39868;53.398;6.564;2024-01-27T01:23:33;7.30;85.50
53962;DHT22;39868;53.398;6.564;2024-01-27T01:26:01;7.30;85.50
53962;DHT22;39868;53.398;6.564;2024-01-27T01:28:29;7.30;85.50
53962;DHT22;39868;53.398;6.564;2024-01-27T01:30:56;7.20;85.50
53962;DHT22;39868;53.398;6.564;2024-01-27T01:33:23;7.20;85.60
53962;DHT22;39868;53.398;6.564;2024-01-27T01:35:51;7.20;85.80
53962;DHT22;39868;53.398;6.564;2024-01-27T01:38:18;7.20;85.90
53962;DHT22;39868;53.398;6.564;2024-01-27T01:40:45;7.20;86.00
53962;DHT22;39868;53.398;6.564;2024-01-27T01:43:12;7.20;86.10
53962;DHT22;39868;53.398;6.564;2024-01-27T01:45:40;7.30;86.10
53962;DHT22;39868;53.398;6.564;2024-01-27T01:48:07;7.30;86.20
53962;DHT22;39868;53.398;6.564;2024-01-27T01:50:36;7.30;86.20
53962;DHT22;39868;53.398;6.564;2024-01-27T01:53:04;7.30;86.10
53962;DHT22;39868;53.398;6.564;2024-01-27T01:55:31;7.30;86.10
53962;DHT22;39868;53.398;6.564;2024-01-27T01:57:58;7.30;86.00
53962;DHT22;39868;53.398;6.564;2024-01-27T02:00:25;7.30;86.00
53962;DHT22;39868;53.398;6.564;2024-01-27T02:02:53;7.30;86.00
53962;DHT22;39868;53.398;6.564;2024-01-27T02:05:20;7.20;85.80
53962;DHT22;39868;53.398;6.564;2024-01-27T02:07:47;7.20;85.80
53962;DHT22;39868;53.398;6.564;2024-01-27T02:10:16;7.20;85.80
53962;DHT22;39868;53.398;6.564;2024-01-27T02:12:44;7.20;85.80
53962;DHT22;39868;53.398;6.564;2024-01-27T02:15:12;7.10;85.70
53962;DHT22;39868;53.398;6.564;2024-01-27T02:17:40;7.10;85.70
53962;DHT22;39868;53.398;6.564;2024-01-27T02:20:09;7.10;85.80
53962;DHT22;39868;53.398;6.564;2024-01-27T02:22:36;7.10;85.80
53962;DHT22;39868;53.398;6.564;2024-01-27T02:25:04;7.00;85.80
53962;DHT22;39868;53.398;6.564;2024-01-27T02:27:31;7.00;85.90
53962;DHT22;39868;53.398;6.564;2024-01-27T02:29:58;7.00;86.00
53962;DHT22;39868;53.398;6.564;2024-01-27T02:32:26;7.00;86.00
53962;DHT22;39868;53.398;6.564;2024-01-27T02:34:53;7.00;86.00
53962;DHT22;39868;53.398;6.564;2024-01-27T02:37:20;7.00;86.10
53962;DHT22;39868;53.398;6.564;2024-01-27T02:39:48;7.00;86.10
53962;DHT22;39868;53.398;6.564;2024-01-27T02:42:15;7.00;86.10
53962;DHT22;39868;53.398;6.564;2024-01-27T02:44:42;7.00;86.10
53962;DHT22;39868;53.398;6.564;2024-01-27T02:47:09;6.90;86.00
53962;DHT22;39868;53.398;6.564;2024-01-27T02:49:37;6.90;86.00
53962;DHT22;39868;53.398;6.564;2024-01-27T02:52:04;6.90;86.00
53962;DHT22;39868;53.398;6.564;2024-01-27T02:54:31;6.90;86.00
53962;DHT22;39868;53.398;6.564;2024-01-27T02:56:59;6.90;86.00
53962;DHT22;39868;53.398;6.564;2024-01-27T02:59:26;6.90;86.00
53962;DHT22;39868;53.398;6.564;2024-01-27T03:01:53;6.90;86.10
53962;DHT22;39868;53.398;6.564;2024-01-27T03:04:20;6.80;86.10
53962;DHT22;39868;53.398;6.564;2024-01-27T03:06:49;6.80;86.10
53962;DHT22;39868;53.398;6.564;2024-01-27T03:09:16;6.80;86.20
53962;DHT22;39868;53.398;6.564;2024-01-27T03:11:44;6.80;86.20
53962;DHT22;39868;53.398;6.564;2024-01-27T03:14:11;6.80;86.20
53962;DHT22;39868;53.398;6.564;2024-01-27T03:16:38;6.80;86.20
53962;DHT22;39868;53.398;6.564;2024-01-27T03:19:06;6.80;86.20
53962;DHT22;39868;53.398;6.564;2024-01-27T03:21:33;6.80;86.20
53962;DHT22;39868;53.398;6.564;2024-01-27T03:24:01;6.70;86.20
53962;DHT22;39868;53.398;6.564;2024-01-27T03:26:28;6.70;86.30
53962;DHT22;39868;53.398;6.564;2024-01-27T03:28:56;6.70;86.20
53962;DHT22;39868;53.398;6.564;2024-01-27T03:31:23;6.70;86.20
53962;DHT22;39868;53.398;6.564;2024-01-27T03:33:50;6.70;86.20
53962;DHT22;39868;53.398;6.564;2024-01-27T03:36:18;6.70;86.20
53962;DHT22;39868;53.398;6.564;2024-01-27T03:38:45;6.70;86.20
53962;DHT22;39868;53.398;6.564;2024-01-27T03:41:13;6.60;86.20
53962;DHT22;39868;53.398;6.564;2024-01-27T03:43:40;6.60;86.20
53962;DHT22;39868;53.398;6.564;2024-01-27T03:46:07;6.60;86.20
53962;DHT22;39868;53.398;6.564;2024-01-27T03:48:34;6.60;86.20
53962;DHT22;39868;53.398;6.564;2024-01-27T03:51:02;6.60;86.30
53962;DHT22;39868;53.398;6.564;2024-01-27T03:53:30;6.60;86.30
53962;DHT22;39868;53.398;6.564;2024-01-27T03:55:58;6.60;86.30
53962;DHT22;39868;53.398;6.564;2024-01-27T03:58:31;6.50;86.30
53962;DHT22;39868;53.398;6.564;2024-01-27T04:00:59;6.50;86.30
53962;DHT22;39868;53.398;6.564;2024-01-27T04:03:26;6.50;86.30
53962;DHT22;39868;53.398;6.564;2024-01-27T04:05:54;6.50;86.40
53962;DHT22;39868;53.398;6.564;2024-01-27T04:08:21;6.50;86.40
53962;DHT22;39868;53.398;6.564;2024-01-27T04:10:48;6.50;86.40
53962;DHT22;39868;53.398;6.564;2024-01-27T04:13:17;6.40;86.40
53962;DHT22;39868;53.398;6.564;2024-01-27T04:15:44;6.40;86.50
53962;DHT22;39868;53.398;6.564;2024-01-27T04:18:11;6.40;86.50
53962;DHT22;39868;53.398;6.564;2024-01-27T04:20:39;6.40;86.60
53962;DHT22;39868;53.398;6.564;2024-01-27T04:23:06;6.40;86.60
53962;DHT22;39868;53.398;6.564;2024-01-27T04:25:34;6.40;86.60
53962;DHT22;39868;53.398;6.564;2024-01-27T04:28:01;6.40;86.70
53962;DHT22;39868;53.398;6.564;2024-01-27T04:30:28;6.40;86.80
53962;DHT22;39868;53.398;6.564;2024-01-27T04:32:56;6.40;86.80
53962;DHT22;39868;53.398;6.564;2024-01-27T04:35:24;6.40;87.00
53962;DHT22;39868;53.398;6.564;2024-01-27T04:37:51;6.40;86.90
53962;DHT22;39868;53.398;6.564;2024-01-27T04:40:19;6.40;87.00
53962;DHT22;39868;53.398;6.564;2024-01-27T04:42:46;6.40;87.00
53962;DHT22;39868;53.398;6.564;2024-01-27T04:45:14;6.40;87.00
53962;DHT22;39868;53.398;6.564;2024-01-27T04:47:42;6.30;87.50
53962;DHT22;39868;53.398;6.564;2024-01-27T04:50:09;6.40;87.10
53962;DHT22;39868;53.398;6.564;2024-01-27T04:52:36;6.30;87.00
53962;DHT22;39868;53.398;6.564;2024-01-27T04:55:04;6.30;87.10
53962;DHT22;39868;53.398;6.564;2024-01-27T04:57:31;6.30;87.10
53962;DHT22;39868;53.398;6.564;2024-01-27T04:59:59;6.30;87.10
53962;DHT22;39868;53.398;6.564;2024-01-27T05:02:26;6.30;87.10
53962;DHT22;39868;53.398;6.564;2024-01-27T05:04:54;6.30;87.20
53962;DHT22;39868;53.398;6.564;2024-01-27T05:07:21;6.30;87.40
53962;DHT22;39868;53.398;6.564;2024-01-27T05:09:48;6.30;87.40
53962;DHT22;39868;53.398;6.564;2024-01-27T05:12:16;6.30;87.50
53962;DHT22;39868;53.398;6.564;2024-01-27T05:14:44;6.30;87.50
53962;DHT22;39868;53.398;6.564;2024-01-27T05:17:12;6.30;87.60
53962;DHT22;39868;53.398;6.564;2024-01-27T05:19:39;6.30;87.60
53962;DHT22;39868;53.398;6.564;2024-01-27T05:22:07;6.30;87.60
53962;DHT22;39868;53.398;6.564;2024-01-27T05:24:34;6.30;87.60
53962;DHT22;39868;53.398;6.564;2024-01-27T05:27:01;6.30;87.60
53962;DHT22;39868;53.398;6.564;2024-01-27T05:29:29;6.30;87.70
53962;DHT22;39868;53.398;6.564;2024-01-27T05:31:56;6.40;87.70
53962;DHT22;39868;53.398;6.564;2024-01-27T05:34:23;6.30;87.70
53962;DHT22;39868;53.398;6.564;2024-01-27T05:36:51;6.30;87.60
53962;DHT22;39868;53.398;6.564;2024-01-27T05:39:18;6.30;87.60
53962;DHT22;39868;53.398;6.564;2024-01-27T05:41:45;6.30;87.60
53962;DHT22;39868;53.398;6.564;2024-01-27T05:44:14;6.30;87.60
53962;DHT22;39868;53.398;6.564;2024-01-27T05:46:41;6.30;87.70
53962;DHT22;39868;53.398;6.564;2024-01-27T05:49:08;6.30;87.60
53962;DHT22;39868;53.398;6.564;2024-01-27T05:51:36;6.30;87.60
53962;DHT22;39868;53.398;6.564;2024-01-27T05:54:03;6.30;87.70
53962;DHT22;39868;53.398;6.564;2024-01-27T05:56:34;6.30;87.70
53962;DHT22;39868;53.398;6.564;2024-01-27T05:59:03;6.30;87.70
53962;DHT22;39868;53.398;6.564;2024-01-27T06:01:30;6.30;87.70
53962;DHT22;39868;53.398;6.564;2024-01-27T06:03:57;6.30;87.70
53962;DHT22;39868;53.398;6.564;2024-01-27T06:06:26;6.30;87.70
53962;DHT22;39868;53.398;6.564;2024-01-27T06:08:53;6.30;87.70
53962;DHT22;39868;53.398;6.564;2024-01-27T06:11:24;6.30;87.70
53962;DHT22;39868;53.398;6.564;2024-01-27T06:13:52;6.30;87.70
53962;DHT22;39868;53.398;6.564;2024-01-27T06:16:19;6.30;87.80
53962;DHT22;39868;53.398;6.564;2024-01-27T06:18:47;6.30;87.80
53962;DHT22;39868;53.398;6.564;2024-01-27T06:21:14;6.30;87.80
53962;DHT22;39868;53.398;6.564;2024-01-27T06:23:41;6.30;87.80
53962;DHT22;39868;53.398;6.564;2024-01-27T06:26:09;6.30;87.90
53962;DHT22;39868;53.398;6.564;2024-01-27T06:28:37;6.30;87.90
53962;DHT22;39868;53.398;6.564;2024-01-27T06:31:04;6.30;88.00
53962;DHT22;39868;53.398;6.564;2024-01-27T06:33:34;6.30;88.00
53962;DHT22;39868;53.398;6.564;2024-01-27T06:36:02;6.30;88.00
53962;DHT22;39868;53.398;6.564;2024-01-27T06:38:29;6.30;88.00
53962;DHT22;39868;53.398;6.564;2024-01-27T06:40:58;6.30;88.00
53962;DHT22;39868;53.398;6.564;2024-01-27T06:43:26;6.30;88.00
53962;DHT22;39868;53.398;6.564;2024-01-27T06:45:53;6.30;88.00
53962;DHT22;39868;53.398;6.564;2024-01-27T06:48:21;6.30;87.90
53962;DHT22;39868;53.398;6.564;2024-01-27T06:50:49;6.20;87.90
53962;DHT22;39868;53.398;6.564;2024-01-27T06:53:18;6.30;87.90
53962;DHT22;39868;53.398;6.564;2024-01-27T06:55:45;6.30;87.90
53962;DHT22;39868;53.398;6.564;2024-01-27T06:58:13;6.30;87.80
53962;DHT22;39868;53.398;6.564;2024-01-27T07:00:40;6.30;87.90
53962;DHT22;39868;53.398;6.564;2024-01-27T07:03:08;6.20;87.90
53962;DHT22;39868;53.398;6.564;2024-01-27T07:05:39;6.20;87.90
53962;DHT22;39868;53.398;6.564;2024-01-27T07:08:08;6.20;88.40
53962;DHT22;39868;53.398;6.564;2024-01-27T07:10:36;6.20;87.80
53962;DHT22;39868;53.398;6.564;2024-01-27T07:13:05;6.20;87.80
53962;DHT22;39868;53.398;6.564;2024-01-27T07:15:33;6.20;87.80
53962;DHT22;39868;53.398;6.564;2024-01-27T07:18:00;6.20;87.80
53962;DHT22;39868;53.398;6.564;2024-01-27T07:20:28;6.20;87.80
53962;DHT22;39868;53.398;6.564;2024-01-27T07:22:56;6.10;87.70
53962;DHT22;39868;53.398;6.564;2024-01-27T07:25:23;6.10;87.70
53962;DHT22;39868;53.398;6.564;2024-01-27T07:27:50;6.10;87.70
53962;DHT22;39868;53.398;6.564;2024-01-27T07:30:18;6.10;87.70
53962;DHT22;39868;53.398;6.564;2024-01-27T07:32:45;6.10;87.80
53962;DHT22;39868;53.398;6.564;2024-01-27T07:35:12;6.10;87.90
53962;DHT22;39868;53.398;6.564;2024-01-27T07:37:40;6.10;87.90
53962;DHT22;39868;53.398;6.564;2024-01-27T07:40:08;6.10;88.00
53962;DHT22;39868;53.398;6.564;2024-01-27T07:42:36;6.10;88.10
53962;DHT22;39868;53.398;6.564;2024-01-27T07:45:04;6.10;88.10
53962;DHT22;39868;53.398;6.564;2024-01-27T07:47:31;6.10;88.20
53962;DHT22;39868;53.398;6.564;2024-01-27T07:49:59;6.10;88.30
53962;DHT22;39868;53.398;6.564;2024-01-27T07:52:26;6.10;88.20
53962;DHT22;39868;53.398;6.564;2024-01-27T07:54:53;6.20;88.30
53962;DHT22;39868;53.398;6.564;2024-01-27T07:57:22;6.20;88.40
53962;DHT22;39868;53.398;6.564;2024-01-27T07:59:49;6.20;88.30
53962;DHT22;39868;53.398;6.564;2024-01-27T08:02:16;6.20;88.30
53962;DHT22;39868;53.398;6.564;2024-01-27T08:04:44;6.20;88.30
53962;DHT22;39868;53.398;6.564;2024-01-27T08:07:11;6.20;88.30
53962;DHT22;39868;53.398;6.564;2024-01-27T08:09:41;6.20;88.30
53962;DHT22;39868;53.398;6.564;2024-01-27T08:12:09;6.30;88.40
53962;DHT22;39868;53.398;6.564;2024-01-27T08:14:36;6.30;88.40
53962;DHT22;39868;53.398;6.564;2024-01-27T08:17:04;6.30;88.30
53962;DHT22;39868;53.398;6.564;2024-01-27T08:19:31;6.30;88.30
53962;DHT22;39868;53.398;6.564;2024-01-27T08:21:59;6.30;88.30
53962;DHT22;39868;53.398;6.564;2024-01-27T08:24:26;6.30;88.40
53962;DHT22;39868;53.398;6.564;2024-01-27T08:26:54;6.40;88.40
53962;DHT22;39868;53.398;6.564;2024-01-27T08:29:21;6.40;88.40
53962;DHT22;39868;53.398;6.564;2024-01-27T08:31:48;6.40;88.40
53962;DHT22;39868;53.398;6.564;2024-01-27T08:34:16;6.40;88.40
53962;DHT22;39868;53.398;6.564;2024-01-27T08:36:43;6.50;88.50
53962;DHT22;39868;53.398;6.564;2024-01-27T08:39:10;6.50;88.60
53962;DHT22;39868;53.398;6.564;2024-01-27T08:41:39;6.50;88.60
53962;DHT22;39868;53.398;6.564;2024-01-27T08:44:07;6.60;88.70
53962;DHT22;39868;53.398;6.564;2024-01-27T08:46:34;6.60;88.70
53962;DHT22;39868;53.398;6.564;2024-01-27T08:49:01;6.70;88.80
53962;DHT22;39868;53.398;6.564;2024-01-27T08:51:29;6.70;88.70
53962;DHT22;39868;53.398;6.564;2024-01-27T08:53:56;6.70;88.70
53962;DHT22;39868;53.398;6.564;2024-01-27T08:56:23;6.80;88.70
53962;DHT22;39868;53.398;6.564;2024-01-27T08:58:51;6.80;88.70
53962;DHT22;39868;53.398;6.564;2024-01-27T09:01:20;6.90;88.70
53962;DHT22;39868;53.398;6.564;2024-01-27T09:03:47;6.90;88.70
53962;DHT22;39868;53.398;6.564;2024-01-27T09:06:14;7.00;88.70
53962;DHT22;39868;53.398;6.564;2024-01-27T09:08:42;7.00;88.70
53962;DHT22;39868;53.398;6.564;2024-01-27T09:11:09;7.10;88.70
53962;DHT22;39868;53.398;6.564;2024-01-27T09:13:37;7.10;88.70
53962;DHT22;39868;53.398;6.564;2024-01-27T09:16:04;7.20;88.70
53962;DHT22;39868;53.398;6.564;2024-01-27T09:18:31;7.20;88.70
53962;DHT22;39868;53.398;6.564;2024-01-27T09:20:59;7.20;88.70
53962;DHT22;39868;53.398;6.564;2024-01-27T09:23:26;7.30;88.70
53962;DHT22;39868;53.398;6.564;2024-01-27T09:25:54;7.40;88.70
53962;DHT22;39868;53.398;6.564;2024-01-27T09:28:21;7.40;88.70
53962;DHT22;39868;53.398;6.564;2024-01-27T09:30:48;7.50;88.70
53962;DHT22;39868;53.398;6.564;2024-01-27T09:33:15;7.50;88.60
53962;DHT22;39868;53.398;6.564;2024-01-27T09:35:47;7.60;88.60
53962;DHT22;39868;53.398;6.564;2024-01-27T09:38:14;7.60;88.60
53962;DHT22;39868;53.398;6.564;2024-01-27T09:40:41;7.70;88.60
53962;DHT22;39868;53.398;6.564;2024-01-27T09:43:13;7.80;88.70
53962;DHT22;39868;53.398;6.564;2024-01-27T09:45:41;7.80;88.60
53962;DHT22;39868;53.398;6.564;2024-01-27T09:48:10;7.90;88.60
53962;DHT22;39868;53.398;6.564;2024-01-27T09:50:41;8.00;88.60
53962;DHT22;39868;53.398;6.564;2024-01-27T09:53:09;8.10;88.60
53962;DHT22;39868;53.398;6.564;2024-01-27T09:55:37;8.20;88.50
53962;DHT22;39868;53.398;6.564;2024-01-27T09:58:04;8.20;88.50
53962;DHT22;39868;53.398;6.564;2024-01-27T10:00:34;8.30;88.50
53962;DHT22;39868;53.398;6.564;2024-01-27T10:03:04;8.40;88.50
53962;DHT22;39868;53.398;6.564;2024-01-27T10:05:32;8.50;88.40
53962;DHT22;39868;53.398;6.564;2024-01-27T10:07:59;8.60;88.30
53962;DHT22;39868;53.398;6.564;2024-01-27T10:10:27;8.60;88.60
53962;DHT22;39868;53.398;6.564;2024-01-27T10:12:56;8.70;88.00
53962;DHT22;39868;53.398;6.564;2024-01-27T10:15:25;8.80;87.90
53962;DHT22;39868;53.398;6.564;2024-01-27T10:18:05;8.90;87.90
53962;DHT22;39868;53.398;6.564;2024-01-27T10:20:34;8.90;87.90
53962;DHT22;39868;53.398;6.564;2024-01-27T10:23:10;9.00;87.90
53962;DHT22;39868;53.398;6.564;2024-01-27T10:25:41;9.10;87.90
53962;DHT22;39868;53.398;6.564;2024-01-27T10:28:09;9.20;87.80
53962;DHT22;39868;53.398;6.564;2024-01-27T10:30:36;9.20;87.70
53962;DHT22;39868;53.398;6.564;2024-01-27T10:33:04;9.30;87.70
53962;DHT22;39868;53.398;6.564;2024-01-27T10:35:32;9.40;87.70
53962;DHT22;39868;53.398;6.564;2024-01-27T10:37:59;9.40;87.50
53962;DHT22;39868;53.398;6.564;2024-01-27T10:40:27;9.50;87.50
53962;DHT22;39868;53.398;6.564;2024-01-27T10:43:05;9.60;87.40
53962;DHT22;39868;53.398;6.564;2024-01-27T10:45:41;9.60;87.30
53962;DHT22;39868;53.398;6.564;2024-01-27T10:48:09;9.70;87.20
53962;DHT22;39868;53.398;6.564;2024-01-27T10:50:40;9.70;87.10
53962;DHT22;39868;53.398;6.564;2024-01-27T10:53:24;9.80;87.00
53962;DHT22;39868;53.398;6.564;2024-01-27T10:55:53;9.80;87.10
53962;DHT22;39868;53.398;6.564;2024-01-27T10:58:24;9.90;87.30
53962;DHT22;39868;53.398;6.564;2024-01-27T11:00:53;10.00;87.10
53962;DHT22;39868;53.398;6.564;2024-01-27T11:03:21;10.00;86.70
53962;DHT22;39868;53.398;6.564;2024-01-27T11:05:50;10.10;86.90
53962;DHT22;39868;53.398;6.564;2024-01-27T11:08:19;10.10;86.70
53962;DHT22;39868;53.398;6.564;2024-01-27T11:10:47;10.20;86.80
53962;DHT22;39868;53.398;6.564;2024-01-27T11:13:14;10.30;86.90
53962;DHT22;39868;53.398;6.564;2024-01-27T11:15:52;10.30;86.70
53962;DHT22;39868;53.398;6.564;2024-01-27T11:18:20;10.40;86.50
53962;DHT22;39868;53.398;6.564;2024-01-27T11:20:56;10.40;86.50
53962;DHT22;39868;53.398;6.564;2024-01-27T11:23:32;10.50;86.40
53962;DHT22;39868;53.398;6.564;2024-01-27T11:26:07;10.60;86.40
53962;DHT22;39868;53.398;6.564;2024-01-27T11:28:37;10.60;86.30
53962;DHT22;39868;53.398;6.564;2024-01-27T11:31:06;10.70;86.10
53962;DHT22;39868;53.398;6.564;2024-01-27T11:33:43;10.70;86.30
53962;DHT22;39868;53.398;6.564;2024-01-27T11:36:22;10.80;86.20
53962;DHT22;39868;53.398;6.564;2024-01-27T11:38:51;10.90;86.30
53962;DHT22;39868;53.398;6.564;2024-01-27T11:41:29;11.00;86.30
53962;DHT22;39868;53.398;6.564;2024-01-27T11:43:58;11.00;85.80
53962;DHT22;39868;53.398;6.564;2024-01-27T11:46:26;11.10;85.90
53962;DHT22;39868;53.398;6.564;2024-01-27T11:48:54;11.20;85.80
53962;DHT22;39868;53.398;6.564;2024-01-27T11:51:21;11.30;85.60
53962;DHT22;39868;53.398;6.564;2024-01-27T11:53:50;11.40;85.40
53962;DHT22;39868;53.398;6.564;2024-01-27T11:56:18;11.30;85.00
53962;DHT22;39868;53.398;6.564;2024-01-27T11:58:50;11.50;84.90
53962;DHT22;39868;53.398;6.564;2024-01-27T12:01:18;11.60;84.90
53962;DHT22;39868;53.398;6.564;2024-01-27T12:03:45;11.60;84.70
53962;DHT22;39868;53.398;6.564;2024-01-27T12:06:13;11.70;84.10
53962;DHT22;39868;53.398;6.564;2024-01-27T12:08:42;11.70;84.10
53962;DHT22;39868;53.398;6.564;2024-01-27T12:11:16;11.70;84.00
53962;DHT22;39868;53.398;6.564;2024-01-27T12:13:51;11.80;84.20
53962;DHT22;39868;53.398;6.564;2024-01-27T12:16:21;11.90;84.30
53962;DHT22;39868;53.398;6.564;2024-01-27T12:18:52;11.90;83.60
53962;DHT22;39868;53.398;6.564;2024-01-27T12:21:21;12.00;83.60
53962;DHT22;39868;53.398;6.564;2024-01-27T12:23:56;12.10;83.30
53962;DHT22;39868;53.398;6.564;2024-01-27T12:26:28;12.10;83.20
53962;DHT22;39868;53.398;6.564;2024-01-27T12:28:57;12.20;82.90
53962;DHT22;39868;53.398;6.564;2024-01-27T12:31:27;12.20;82.90
53962;DHT22;39868;53.398;6.564;2024-01-27T12:33:56;12.30;83.00
53962;DHT22;39868;53.398;6.564;2024-01-27T12:36:26;12.30;82.50
53962;DHT22;39868;53.398;6.564;2024-01-27T12:38:57;12.30;82.60
53962;DHT22;39868;53.398;6.564;2024-01-27T12:41:25;12.40;82.80
53962;DHT22;39868;53.398;6.564;2024-01-27T12:43:54;12.40;82.10
53962;DHT22;39868;53.398;6.564;2024-01-27T12:46:30;12.40;82.00
53962;DHT22;39868;53.398;6.564;2024-01-27T12:48:58;12.40;82.00
53962;DHT22;39868;53.398;6.564;2024-01-27T12:51:25;12.40;81.40
53962;DHT22;39868;53.398;6.564;2024-01-27T12:53:53;12.30;81.00
53962;DHT22;39868;53.398;6.564;2024-01-27T12:56:20;12.40;81.80
53962;DHT22;39868;53.398;6.564;2024-01-27T12:58:47;12.40;81.30
53962;DHT22;39868;53.398;6.564;2024-01-27T13:01:15;12.40;81.50
53962;DHT22;39868;53.398;6.564;2024-01-27T13:03:43;12.40;80.80
53962;DHT22;39868;53.398;6.564;2024-01-27T13:06:12;12.40;80.50
53962;DHT22;39868;53.398;6.564;2024-01-27T13:08:40;12.40;80.60
53962;DHT22;39868;53.398;6.564;2024-01-27T13:11:09;12.40;80.80
53962;DHT22;39868;53.398;6.564;2024-01-27T13:13:36;12.40;80.90
53962;DHT22;39868;53.398;6.564;2024-01-27T13:16:04;12.40;80.90
53962;DHT22;39868;53.398;6.564;2024-01-27T13:18:31;12.40;80.30
53962;DHT22;39868;53.398;6.564;2024-01-27T13:20:59;12.40;80.20
53962;DHT22;39868;53.398;6.564;2024-01-27T13:23:27;12.40;80.40
53962;DHT22;39868;53.398;6.564;2024-01-27T13:25:54;12.40;80.40
53962;DHT22;39868;53.398;6.564;2024-01-27T13:28:41;12.40;80.10
53962;DHT22;39868;53.398;6.564;2024-01-27T13:31:08;12.40;80.10
53962;DHT22;39868;53.398;6.564;2024-01-27T13:33:36;12.40;80.40
53962;DHT22;39868;53.398;6.564;2024-01-27T13:36:04;12.40;80.50
53962;DHT22;39868;53.398;6.564;2024-01-27T13:38:31;12.40;80.30
53962;DHT22;39868;53.398;6.564;2024-01-27T13:40:58;12.40;80.60
53962;DHT22;39868;53.398;6.564;2024-01-27T13:43:26;12.40;79.90
53962;DHT22;39868;53.398;6.564;2024-01-27T13:45:53;12.40;79.80
53962;DHT22;39868;53.398;6.564;2024-01-27T13:48:21;12.40;79.90
53962;DHT22;39868;53.398;6.564;2024-01-27T13:50:49;12.40;79.90
53962;DHT22;39868;53.398;6.564;2024-01-27T13:53:16;12.40;80.20
53962;DHT22;39868;53.398;6.564;2024-01-27T13:55:46;12.40;80.20
53962;DHT22;39868;53.398;6.564;2024-01-27T13:58:13;12.40;80.30
53962;DHT22;39868;53.398;6.564;2024-01-27T14:00:41;12.40;79.90
53962;DHT22;39868;53.398;6.564;2024-01-27T14:03:08;12.50;80.00
53962;DHT22;39868;53.398;6.564;2024-01-27T14:05:36;12.50;80.20
53962;DHT22;39868;53.398;6.564;2024-01-27T14:08:05;12.50;80.20
53962;DHT22;39868;53.398;6.564;2024-01-27T14:10:34;12.50;80.40
53962;DHT22;39868;53.398;6.564;2024-01-27T14:13:02;12.50;80.30
53962;DHT22;39868;53.398;6.564;2024-01-27T14:15:31;12.60;80.20
53962;DHT22;39868;53.398;6.564;2024-01-27T14:17:59;12.60;80.00
53962;DHT22;39868;53.398;6.564;2024-01-27T14:20:26;12.60;79.80
53962;DHT22;39868;53.398;6.564;2024-01-27T14:22:56;12.60;79.70
53962;DHT22;39868;53.398;6.564;2024-01-27T14:25:25;12.70;79.60
53962;DHT22;39868;53.398;6.564;2024-01-27T14:27:52;12.60;79.30
53962;DHT22;39868;53.398;6.564;2024-01-27T14:30:19;12.60;79.60
53962;DHT22;39868;53.398;6.564;2024-01-27T14:32:46;12.50;78.90
53962;DHT22;39868;53.398;6.564;2024-01-27T14:35:14;12.50;79.30
53962;DHT22;39868;53.398;6.564;2024-01-27T14:37:42;12.40;78.80
53962;DHT22;39868;53.398;6.564;2024-01-27T14:40:10;12.30;78.90
53962;DHT22;39868;53.398;6.564;2024-01-27T14:42:37;12.20;79.10
53962;DHT22;39868;53.398;6.564;2024-01-27T14:45:07;12.10;79.10
53962;DHT22;39868;53.398;6.564;2024-01-27T14:47:35;12.10;79.30
53962;DHT22;39868;53.398;6.564;2024-01-27T14:50:04;12.00;79.40
53962;DHT22;39868;53.398;6.564;2024-01-27T14:52:33;11.90;79.50
53962;DHT22;39868;53.398;6.564;2024-01-27T14:55:00;11.90;79.70
53962;DHT22;39868;53.398;6.564;2024-01-27T14:57:27;11.80;79.80
53962;DHT22;39868;53.398;6.564;2024-01-27T14:59:55;11.90;79.90
53962;DHT22;39868;53.398;6.564;2024-01-27T15:02:22;11.80;80.00
53962;DHT22;39868;53.398;6.564;2024-01-27T15:04:54;11.80;80.00
53962;DHT22;39868;53.398;6.564;2024-01-27T15:07:21;11.70;80.00
53962;DHT22;39868;53.398;6.564;2024-01-27T15:09:48;11.70;79.90
53962;DHT22;39868;53.398;6.564;2024-01-27T15:12:15;11.70;80.00
53962;DHT22;39868;53.398;6.564;2024-01-27T15:14:43;11.60;80.00
53962;DHT22;39868;53.398;6.564;2024-01-27T15:17:11;11.60;80.00
53962;DHT22;39868;53.398;6.564;2024-01-27T15:19:39;11.50;79.90
53962;DHT22;39868;53.398;6.564;2024-01-27T15:22:07;11.40;79.80
53962;DHT22;39868;53.398;6.564;2024-01-27T15:24:36;11.40;79.90
53962;DHT22;39868;53.398;6.564;2024-01-27T15:27:05;11.30;80.10
53962;DHT22;39868;53.398;6.564;2024-01-27T15:29:38;11.20;80.10
53962;DHT22;39868;53.398;6.564;2024-01-27T15:32:05;11.10;80.40
53962;DHT22;39868;53.398;6.564;2024-01-27T15:34:34;11.10;80.40
53962;DHT22;39868;53.398;6.564;2024-01-27T15:37:01;11.00;80.40
53962;DHT22;39868;53.398;6.564;2024-01-27T15:39:29;10.90;80.40
53962;DHT22;39868;53.398;6.564;2024-01-27T15:41:56;10.80;80.50
53962;DHT22;39868;53.398;6.564;2024-01-27T15:44:25;10.80;80.50
53962;DHT22;39868;53.398;6.564;2024-01-27T15:46:52;10.70;80.60
53962;DHT22;39868;53.398;6.564;2024-01-27T15:49:19;10.60;80.60